sensor_id;sensor_type;location;lat;lon;timestamp;temperature;humidity
16273;DHT22;8244;50.044;9.006;2023-02-04T00:02:50;7.70;99.90
16273;DHT22;8244;50.044;9.006;2023-02-04T00:07:52;7.70;99.90
16273;DHT22;8244;50.044;9.006;2023-02-04T00:12:55;7.70;99.90
16273;DHT22;8244;50.044;9.006;2023-02-04T00:17:57;7.70;99.90
16273;DHT22;8244;50.044;9.006;2023-02-04T00:22:58;7.70;99.90
16273;DHT22;8244;50.044;9.006;2023-02-04T00:28:01;7.60;99.90
16273;DHT22;8244;50.044;9.006;2023-02-04T00:33:03;7.60;99.90
16273;DHT22;8244;50.044;9.006;2023-02-04T00:38:05;7.60;99.90
16273;DHT22;8244;50.044;9.006;2023-02-04T00:43:08;7.60;99.90
16273;DHT22;8244;50.044;9.006;2023-02-04T00:48:10;7.60;99.90
16273;DHT22;8244;50.044;9.006;2023-02-04T00:53:12;7.60;99.90
16273;DHT22;8244;50.044;9.006;2023-02-04T00:58:15;7.60;99.90
16273;DHT22;8244;50.044;9.006;2023-02-04T01:03:16;7.60;99.90
16273;DHT22;8244;50.044;9.006;2023-02-04T01:08:18;7.60;99.90
16273;DHT22;8244;50.044;9.006;2023-02-04T01:13:21;7.50;99.90
16273;DHT22;8244;50.044;9.006;2023-02-04T01:18:23;7.50;99.90
16273;DHT22;8244;50.044;9.006;2023-02-04T01:23:24;7.50;99.90
16273;DHT22;8244;50.044;9.006;2023-02-04T01:28:27;7.40;99.90
16273;DHT22;8244;50.044;9.006;2023-02-04T01:33:29;7.40;99.90
16273;DHT22;8244;50.044;9.006;2023-02-04T01:38:31;7.30;99.90
16273;DHT22;8244;50.044;9.006;2023-02-04T01:43:34;7.30;99.90
16273;DHT22;8244;50.044;9.006;2023-02-04T01:48:35;7.20;99.90
16273;DHT22;8244;50.044;9.006;2023-02-04T01:53:37;7.20;99.90
16273;DHT22;8244;50.044;9.006;2023-02-04T01:58:41;7.20;99.90
16273;DHT22;8244;50.044;9.006;2023-02-04T02:03:43;7.10;99.90
16273;DHT22;8244;50.044;9.006;2023-02-04T02:08:44;7.00;99.90
16273;DHT22;8244;50.044;9.006;2023-02-04T02:13:47;6.90;99.90
16273;DHT22;8244;50.044;9.006;2023-02-04T02:18:49;6.80;99.90
16273;DHT22;8244;50.044;9.006;2023-02-04T02:23:54;6.80;99.90
16273;DHT22;8244;50.044;9.006;2023-02-04T02:28:57;6.60;99.90
16273;DHT22;8244;50.044;9.006;2023-02-04T02:33:58;6.60;99.90
16273;DHT22;8244;50.044;9.006;2023-02-04T02:39:02;6.60;99.90
16273;DHT22;8244;50.044;9.006;2023-02-04T02:44:03;6.60;99.90
16273;DHT22;8244;50.044;9.006;2023-02-04T02:49:05;6.50;99.90
16273;DHT22;8244;50.044;9.006;2023-02-04T02:54:17;6.40;99.90
16273;DHT22;8244;50.044;9.006;2023-02-04T02:59:19;6.30;99.90
16273;DHT22;8244;50.044;9.006;2023-02-04T03:04:21;6.20;99.90
16273;DHT22;8244;50.044;9.006;2023-02-04T03:09:26;6.10;99.90
16273;DHT22;8244;50.044;9.006;2023-02-04T03:14:28;6.00;99.90
16273;DHT22;8244;50.044;9.006;2023-02-04T03:19:30;6.00;99.90
16273;DHT22;8244;50.044;9.006;2023-02-04T03:24:33;6.00;99.90
16273;DHT22;8244;50.044;9.006;2023-02-04T03:29:41;6.00;99.90
16273;DHT22;8244;50.044;9.006;2023-02-04T03:34:43;5.90;99.90
16273;DHT22;8244;50.044;9.006;2023-02-04T03:39:46;5.80;99.90
16273;DHT22;8244;50.044;9.006;2023-02-04T03:44:49;5.80;99.90
16273;DHT22;8244;50.044;9.006;2023-02-04T03:49:51;5.70;99.90
16273;DHT22;8244;50.044;9.006;2023-02-04T03:54:54;5.70;99.90
16273;DHT22;8244;50.044;9.006;2023-02-04T03:59:55;5.60;99.90
16273;DHT22;8244;50.044;9.006;2023-02-04T04:04:57;5.60;99.90
16273;DHT22;8244;50.044;9.006;2023-02-04T04:10:00;5.60;99.90
16273;DHT22;8244;50.044;9.006;2023-02-04T04:15:02;5.60;99.90
16273;DHT22;8244;50.044;9.006;2023-02-04T04:20:04;5.50;99.90
16273;DHT22;8244;50.044;9.006;2023-02-04T04:25:08;5.50;99.90
16273;DHT22;8244;50.044;9.006;2023-02-04T04:30:11;5.50;99.90
16273;DHT22;8244;50.044;9.006;2023-02-04T04:35:13;5.50;99.90
16273;DHT22;8244;50.044;9.006;2023-02-04T04:40:16;5.50;99.90
16273;DHT22;8244;50.044;9.006;2023-02-04T04:45:19;5.50;99.90
16273;DHT22;8244;50.044;9.006;2023-02-04T04:50:21;5.40;99.90
16273;DHT22;8244;50.044;9.006;2023-02-04T04:55:24;5.40;99.90
16273;DHT22;8244;50.044;9.006;2023-02-04T05:00:26;5.30;99.90
16273;DHT22;8244;50.044;9.006;2023-02-04T05:05:27;5.30;99.90
16273;DHT22;8244;50.044;9.006;2023-02-04T05:10:30;5.30;99.90
16273;DHT22;8244;50.044;9.006;2023-02-04T05:15:32;5.20;99.90
16273;DHT22;8244;50.044;9.006;2023-02-04T05:20:34;5.20;99.90
16273;DHT22;8244;50.044;9.006;2023-02-04T05:25:37;5.20;99.90
16273;DHT22;8244;50.044;9.006;2023-02-04T05:30:38;5.20;99.90
16273;DHT22;8244;50.044;9.006;2023-02-04T05:35:40;5.20;99.90
16273;DHT22;8244;50.044;9.006;2023-02-04T05:40:43;5.20;99.90
16273;DHT22;8244;50.044;9.006;2023-02-04T05:45:45;5.20;99.90
16273;DHT22;8244;50.044;9.006;2023-02-04T05:50:46;5.20;99.90
16273;DHT22;8244;50.044;9.006;2023-02-04T05:55:49;5.20;99.90
16273;DHT22;8244;50.044;9.006;2023-02-04T06:00:51;5.20;99.90
16273;DHT22;8244;50.044;9.006;2023-02-04T06:05:53;5.10;99.90
16273;DHT22;8244;50.044;9.006;2023-02-04T06:10:56;5.10;99.90
16273;DHT22;8244;50.044;9.006;2023-02-04T06:15:57;5.00;99.90
16273;DHT22;8244;50.044;9.006;2023-02-04T06:20:59;5.00;99.90
16273;DHT22;8244;50.044;9.006;2023-02-04T06:26:05;5.00;99.90
16273;DHT22;8244;50.044;9.006;2023-02-04T06:31:07;4.90;99.90
16273;DHT22;8244;50.044;9.006;2023-02-04T06:36:09;4.90;99.90
16273;DHT22;8244;50.044;9.006;2023-02-04T06:41:12;5.00;99.90
16273;DHT22;8244;50.044;9.006;2023-02-04T06:46:13;5.00;99.90
16273;DHT22;8244;50.044;9.006;2023-02-04T06:51:15;5.00;99.90
16273;DHT22;8244;50.044;9.006;2023-02-04T06:56:18;5.00;99.90
16273;DHT22;8244;50.044;9.006;2023-02-04T07:01:20;5.00;99.90
16273;DHT22;8244;50.044;9.006;2023-02-04T07:06:21;5.00;99.90
16273;DHT22;8244;50.044;9.006;2023-02-04T07:11:24;5.00;99.90
16273;DHT22;8244;50.044;9.006;2023-02-04T07:16:26;5.00;99.90
16273;DHT22;8244;50.044;9.006;2023-02-04T07:21:27;4.90;99.90
16273;DHT22;8244;50.044;9.006;2023-02-04T07:26:30;4.90;99.90
16273;DHT22;8244;50.044;9.006;2023-02-04T07:31:33;4.90;99.90
16273;DHT22;8244;50.044;9.006;2023-02-04T07:36:35;4.90;99.90
16273;DHT22;8244;50.044;9.006;2023-02-04T07:41:38;4.90;99.90
16273;DHT22;8244;50.044;9.006;2023-02-04T07:46:39;4.80;99.90
16273;DHT22;8244;50.044;9.006;2023-02-04T07:51:41;4.80;99.90
16273;DHT22;8244;50.044;9.006;2023-02-04T07:56:44;4.80;99.90
16273;DHT22;8244;50.044;9.006;2023-02-04T08:01:46;4.80;99.90
16273;DHT22;8244;50.044;9.006;2023-02-04T08:06:49;4.80;99.90
16273;DHT22;8244;50.044;9.006;2023-02-04T08:11:52;4.90;99.90
16273;DHT22;8244;50.044;9.006;2023-02-04T08:16:53;5.00;99.90
16273;DHT22;8244;50.044;9.006;2023-02-04T08:21:55;5.00;99.90
16273;DHT22;8244;50.044;9.006;2023-02-04T08:26:58;5.10;99.90
16273;DHT22;8244;50.044;9.006;2023-02-04T08:32:00;5.30;99.90
16273;DHT22;8244;50.044;9.006;2023-02-04T08:37:01;5.40;99.90
16273;DHT22;8244;50.044;9.006;2023-02-04T08:42:04;5.60;99.90
16273;DHT22;8244;50.044;9.006;2023-02-04T08:47:06;5.80;99.90
16273;DHT22;8244;50.044;9.006;2023-02-04T08:52:09;6.00;99.90
16273;DHT22;8244;50.044;9.006;2023-02-04T08:57:12;6.30;99.90
16273;DHT22;8244;50.044;9.006;2023-02-04T09:02:14;6.40;99.90
16273;DHT22;8244;50.044;9.006;2023-02-04T09:07:16;6.60;99.90
16273;DHT22;8244;50.044;9.006;2023-02-04T09:12:19;6.70;99.90
16273;DHT22;8244;50.044;9.006;2023-02-04T09:17:20;6.90;99.90
16273;DHT22;8244;50.044;9.006;2023-02-04T09:22:22;7.10;99.90
16273;DHT22;8244;50.044;9.006;2023-02-04T09:27:25;7.40;99.90
16273;DHT22;8244;50.044;9.006;2023-02-04T09:32:27;7.90;99.90
16273;DHT22;8244;50.044;9.006;2023-02-04T09:37:28;8.10;99.90
16273;DHT22;8244;50.044;9.006;2023-02-04T09:42:31;8.40;99.90
16273;DHT22;8244;50.044;9.006;2023-02-04T09:47:33;8.50;99.90
16273;DHT22;8244;50.044;9.006;2023-02-04T09:52:35;8.40;99.90
16273;DHT22;8244;50.044;9.006;2023-02-04T09:57:38;8.50;99.90
16273;DHT22;8244;50.044;9.006;2023-02-04T10:02:40;8.70;99.90
16273;DHT22;8244;50.044;9.006;2023-02-04T10:07:42;8.70;99.90
16273;DHT22;8244;50.044;9.006;2023-02-04T10:12:47;8.80;99.90
16273;DHT22;8244;50.044;9.006;2023-02-04T10:17:52;8.80;99.90
16273;DHT22;8244;50.044;9.006;2023-02-04T10:22:55;8.80;99.90
16273;DHT22;8244;50.044;9.006;2023-02-04T10:27:59;8.90;99.90
16273;DHT22;8244;50.044;9.006;2023-02-04T10:33:12;9.30;99.90
16273;DHT22;8244;50.044;9.006;2023-02-04T10:38:14;9.60;99.90
16273;DHT22;8244;50.044;9.006;2023-02-04T10:43:19;9.90;99.90
16273;DHT22;8244;50.044;9.006;2023-02-04T10:53:36;10.70;99.90
16273;DHT22;8244;50.044;9.006;2023-02-04T10:58:56;10.90;99.90
16273;DHT22;8244;50.044;9.006;2023-02-04T11:03:57;11.00;99.90
16273;DHT22;8244;50.044;9.006;2023-02-04T11:09:00;11.00;99.90
16273;DHT22;8244;50.044;9.006;2023-02-04T11:14:03;10.80;99.90
16273;DHT22;8244;50.044;9.006;2023-02-04T11:19:10;10.80;99.90
16273;DHT22;8244;50.044;9.006;2023-02-04T11:24:24;10.80;99.90
16273;DHT22;8244;50.044;9.006;2023-02-04T11:29:28;10.60;99.90
16273;DHT22;8244;50.044;9.006;2023-02-04T11:34:45;10.50;99.90
16273;DHT22;8244;50.044;9.006;2023-02-04T11:39:49;10.30;99.90
16273;DHT22;8244;50.044;9.006;2023-02-04T11:44:52;10.40;99.90
16273;DHT22;8244;50.044;9.006;2023-02-04T11:49:57;10.50;99.90
16273;DHT22;8244;50.044;9.006;2023-02-04T11:55:00;10.60;99.90
16273;DHT22;8244;50.044;9.006;2023-02-04T12:00:03;10.60;99.90
16273;DHT22;8244;50.044;9.006;2023-02-04T12:05:10;10.30;99.90
16273;DHT22;8244;50.044;9.006;2023-02-04T12:10:22;10.40;99.90
16273;DHT22;8244;50.044;9.006;2023-02-04T12:15:30;10.60;99.90
16273;DHT22;8244;50.044;9.006;2023-02-04T12:20:35;10.80;99.90
16273;DHT22;8244;50.044;9.006;2023-02-04T12:25:38;10.80;99.90
16273;DHT22;8244;50.044;9.006;2023-02-04T12:30:40;10.80;99.90
16273;DHT22;8244;50.044;9.006;2023-02-04T12:35:42;10.90;99.90
16273;DHT22;8244;50.044;9.006;2023-02-04T12:40:45;11.00;99.90
16273;DHT22;8244;50.044;9.006;2023-02-04T12:45:46;11.00;99.90
16273;DHT22;8244;50.044;9.006;2023-02-04T12:50:49;10.80;99.90
16273;DHT22;8244;50.044;9.006;2023-02-04T12:55:52;10.80;99.90
16273;DHT22;8244;50.044;9.006;2023-02-04T13:00:53;11.00;99.90
16273;DHT22;8244;50.044;9.006;2023-02-04T13:05:55;11.10;99.90
16273;DHT22;8244;50.044;9.006;2023-02-04T13:10:58;11.20;99.90
16273;DHT22;8244;50.044;9.006;2023-02-04T13:16:00;10.70;99.90
16273;DHT22;8244;50.044;9.006;2023-02-04T13:21:02;10.70;99.90
16273;DHT22;8244;50.044;9.006;2023-02-04T13:26:05;10.60;99.90
16273;DHT22;8244;50.044;9.006;2023-02-04T13:31:07;10.70;99.90
16273;DHT22;8244;50.044;9.006;2023-02-04T13:36:09;10.80;99.90
16273;DHT22;8244;50.044;9.006;2023-02-04T13:41:11;10.80;99.90
16273;DHT22;8244;50.044;9.006;2023-02-04T13:46:13;10.90;99.90
16273;DHT22;8244;50.044;9.006;2023-02-04T13:51:15;10.80;99.90
16273;DHT22;8244;50.044;9.006;2023-02-04T13:56:19;10.70;99.90
16273;DHT22;8244;50.044;9.006;2023-02-04T14:01:20;10.50;99.90
16273;DHT22;8244;50.044;9.006;2023-02-04T14:06:22;10.30;99.90
16273;DHT22;8244;50.044;9.006;2023-02-04T14:11:33;10.30;99.90
16273;DHT22;8244;50.044;9.006;2023-02-04T14:16:35;10.30;99.90
16273;DHT22;8244;50.044;9.006;2023-02-04T14:21:37;10.10;99.90
16273;DHT22;8244;50.044;9.006;2023-02-04T14:26:40;9.90;99.90
16273;DHT22;8244;50.044;9.006;2023-02-04T14:31:41;9.60;99.90
16273;DHT22;8244;50.044;9.006;2023-02-04T14:36:43;9.40;99.90
16273;DHT22;8244;50.044;9.006;2023-02-04T14:41:46;9.40;99.90
16273;DHT22;8244;50.044;9.006;2023-02-04T14:46:48;9.30;99.90
16273;DHT22;8244;50.044;9.006;2023-02-04T14:51:49;9.20;99.90
16273;DHT22;8244;50.044;9.006;2023-02-04T14:56:52;9.20;99.90
16273;DHT22;8244;50.044;9.006;2023-02-04T15:01:54;9.10;99.90
16273;DHT22;8244;50.044;9.006;2023-02-04T15:06:56;9.00;99.90
16273;DHT22;8244;50.044;9.006;2023-02-04T15:11:59;8.90;99.90
16273;DHT22;8244;50.044;9.006;2023-02-04T15:17:01;8.90;99.90
16273;DHT22;8244;50.044;9.006;2023-02-04T15:22:02;8.80;99.90
16273;DHT22;8244;50.044;9.006;2023-02-04T15:27:05;8.70;99.90
16273;DHT22;8244;50.044;9.006;2023-02-04T15:32:07;8.50;99.90
16273;DHT22;8244;50.044;9.006;2023-02-04T15:37:09;8.40;99.90
16273;DHT22;8244;50.044;9.006;2023-02-04T15:42:12;8.30;99.90
16273;DHT22;8244;50.044;9.006;2023-02-04T15:47:14;8.20;99.90
16273;DHT22;8244;50.044;9.006;2023-02-04T15:52:15;8.10;99.90
16273;DHT22;8244;50.044;9.006;2023-02-04T15:57:18;8.00;99.90
16273;DHT22;8244;50.044;9.006;2023-02-04T16:02:20;7.90;99.90
16273;DHT22;8244;50.044;9.006;2023-02-04T16:07:22;7.70;99.90
16273;DHT22;8244;50.044;9.006;2023-02-04T16:12:25;7.70;99.90
16273;DHT22;8244;50.044;9.006;2023-02-04T16:17:26;7.50;99.90
16273;DHT22;8244;50.044;9.006;2023-02-04T16:22:28;7.30;99.90
16273;DHT22;8244;50.044;9.006;2023-02-04T16:27:31;7.10;99.90
16273;DHT22;8244;50.044;9.006;2023-02-04T16:32:33;6.90;99.90
16273;DHT22;8244;50.044;9.006;2023-02-04T16:37:36;6.70;99.90
16273;DHT22;8244;50.044;9.006;2023-02-04T16:42:39;6.60;99.90
16273;DHT22;8244;50.044;9.006;2023-02-04T16:47:41;6.40;99.90
16273;DHT22;8244;50.044;9.006;2023-02-04T16:52:42;6.20;99.90
16273;DHT22;8244;50.044;9.006;2023-02-04T16:57:45;6.00;99.90
16273;DHT22;8244;50.044;9.006;2023-02-04T17:02:47;5.80;99.90
16273;DHT22;8244;50.044;9.006;2023-02-04T17:07:48;5.50;99.90
16273;DHT22;8244;50.044;9.006;2023-02-04T17:12:51;5.30;99.90
16273;DHT22;8244;50.044;9.006;2023-02-04T17:17:53;5.10;99.90
16273;DHT22;8244;50.044;9.006;2023-02-04T17:22:55;4.90;99.90
16273;DHT22;8244;50.044;9.006;2023-02-04T17:27:58;4.80;99.90
16273;DHT22;8244;50.044;9.006;2023-02-04T17:32:59;4.70;99.90
16273;DHT22;8244;50.044;9.006;2023-02-04T17:38:01;4.60;99.90
16273;DHT22;8244;50.044;9.006;2023-02-04T17:43:04;4.60;99.90
16273;DHT22;8244;50.044;9.006;2023-02-04T17:48:07;4.50;99.90
16273;DHT22;8244;50.044;9.006;2023-02-04T17:53:09;4.60;99.90
16273;DHT22;8244;50.044;9.006;2023-02-04T17:58:14;4.70;99.90
16273;DHT22;8244;50.044;9.006;2023-02-04T18:03:19;4.80;99.90
16273;DHT22;8244;50.044;9.006;2023-02-04T18:08:22;5.00;99.90
16273;DHT22;8244;50.044;9.006;2023-02-04T18:13:29;5.20;99.90
16273;DHT22;8244;50.044;9.006;2023-02-04T18:18:34;5.40;99.90
16273;DHT22;8244;50.044;9.006;2023-02-04T18:23:37;5.50;99.90
16273;DHT22;8244;50.044;9.006;2023-02-04T18:28:42;5.60;99.90
16273;DHT22;8244;50.044;9.006;2023-02-04T18:33:45;5.70;99.90
16273;DHT22;8244;50.044;9.006;2023-02-04T18:38:47;5.80;99.90
16273;DHT22;8244;50.044;9.006;2023-02-04T18:43:59;5.90;99.90
16273;DHT22;8244;50.044;9.006;2023-02-04T18:49:06;5.90;99.90
16273;DHT22;8244;50.044;9.006;2023-02-04T18:54:26;6.00;99.90
16273;DHT22;8244;50.044;9.006;2023-02-04T18:59:30;6.00;99.90
16273;DHT22;8244;50.044;9.006;2023-02-04T19:04:32;6.10;99.90
16273;DHT22;8244;50.044;9.006;2023-02-04T19:09:35;6.20;99.90
16273;DHT22;8244;50.044;9.006;2023-02-04T19:14:40;6.30;99.90
16273;DHT22;8244;50.044;9.006;2023-02-04T19:19:47;6.40;99.90
16273;DHT22;8244;50.044;9.006;2023-02-04T19:24:56;6.40;99.90
16273;DHT22;8244;50.044;9.006;2023-02-04T19:30:01;6.50;99.90
16273;DHT22;8244;50.044;9.006;2023-02-04T19:35:20;6.50;99.90
16273;DHT22;8244;50.044;9.006;2023-02-04T19:40:27;6.50;99.90
16273;DHT22;8244;50.044;9.006;2023-02-04T19:45:32;6.40;99.90
16273;DHT22;8244;50.044;9.006;2023-02-04T19:50:35;6.30;99.90
16273;DHT22;8244;50.044;9.006;2023-02-04T19:55:41;6.30;99.90
16273;DHT22;8244;50.044;9.006;2023-02-04T20:00:55;6.30;99.90
16273;DHT22;8244;50.044;9.006;2023-02-04T20:05:58;6.30;99.90
16273;DHT22;8244;50.044;9.006;2023-02-04T20:11:24;6.30;99.90
16273;DHT22;8244;50.044;9.006;2023-02-04T20:16:38;6.30;99.90
16273;DHT22;8244;50.044;9.006;2023-02-04T20:21:40;6.30;99.90
16273;DHT22;8244;50.044;9.006;2023-02-04T20:26:42;6.20;99.90
16273;DHT22;8244;50.044;9.006;2023-02-04T20:31:45;6.30;99.90
16273;DHT22;8244;50.044;9.006;2023-02-04T20:36:48;6.20;99.90
16273;DHT22;8244;50.044;9.006;2023-02-04T20:41:49;6.20;99.90
16273;DHT22;8244;50.044;9.006;2023-02-04T20:46:56;6.20;99.90
16273;DHT22;8244;50.044;9.006;2023-02-04T20:52:05;6.10;99.90
16273;DHT22;8244;50.044;9.006;2023-02-04T20:57:17;6.10;99.90
16273;DHT22;8244;50.044;9.006;2023-02-04T21:02:22;6.00;99.90
16273;DHT22;8244;50.044;9.006;2023-02-04T21:07:24;5.90;99.90
16273;DHT22;8244;50.044;9.006;2023-02-04T21:12:25;5.90;99.90
16273;DHT22;8244;50.044;9.006;2023-02-04T21:17:30;5.80;99.90
16273;DHT22;8244;50.044;9.006;2023-02-04T21:22:32;5.60;99.90
16273;DHT22;8244;50.044;9.006;2023-02-04T21:27:33;5.60;99.90
16273;DHT22;8244;50.044;9.006;2023-02-04T21:32:36;5.40;99.90
16273;DHT22;8244;50.044;9.006;2023-02-04T21:37:38;5.30;99.90
16273;DHT22;8244;50.044;9.006;2023-02-04T21:42:40;5.20;99.90
16273;DHT22;8244;50.044;9.006;2023-02-04T21:47:43;5.20;99.90
16273;DHT22;8244;50.044;9.006;2023-02-04T21:52:45;5.20;99.90
16273;DHT22;8244;50.044;9.006;2023-02-04T21:57:47;5.20;99.90
16273;DHT22;8244;50.044;9.006;2023-02-04T22:02:51;5.20;99.90
16273;DHT22;8244;50.044;9.006;2023-02-04T22:07:53;5.20;99.90
16273;DHT22;8244;50.044;9.006;2023-02-04T22:12:54;5.20;99.90
16273;DHT22;8244;50.044;9.006;2023-02-04T22:17:57;5.20;99.90
16273;DHT22;8244;50.044;9.006;2023-02-04T22:22:59;5.20;99.90
16273;DHT22;8244;50.044;9.006;2023-02-04T22:28:01;5.20;99.90
16273;DHT22;8244;50.044;9.006;2023-02-04T22:33:04;5.20;99.90
16273;DHT22;8244;50.044;9.006;2023-02-04T22:38:06;5.10;99.90
16273;DHT22;8244;50.044;9.006;2023-02-04T22:43:08;5.10;99.90
16273;DHT22;8244;50.044;9.006;2023-02-04T22:48:11;5.10;99.90
16273;DHT22;8244;50.044;9.006;2023-02-04T22:53:12;5.10;99.90
16273;DHT22;8244;50.044;9.006;2023-02-04T22:58:14;5.00;99.90
16273;DHT22;8244;50.044;9.006;2023-02-04T23:03:17;5.00;99.90
16273;DHT22;8244;50.044;9.006;2023-02-04T23:08:19;5.00;99.90
16273;DHT22;8244;50.044;9.006;2023-02-04T23:13:21;4.90;99.90
16273;DHT22;8244;50.044;9.006;2023-02-04T23:18:24;4.90;99.90
16273;DHT22;8244;50.044;9.006;2023-02-04T23:23:25;4.80;99.90
16273;DHT22;8244;50.044;9.006;2023-02-04T23:28:31;4.80;99.90
16273;DHT22;8244;50.044;9.006;2023-02-04T23:33:34;4.70;99.90
16273;DHT22;8244;50.044;9.006;2023-02-04T23:38:35;4.70;99.90
16273;DHT22;8244;50.044;9.006;2023-02-04T23:43:37;4.70;99.90
16273;DHT22;8244;50.044;9.006;2023-02-04T23:48:40;4.60;99.90
16273;DHT22;8244;50.044;9.006;2023-02-04T23:53:41;4.60;99.90
16273;DHT22;8244;50.044;9.006;2023-02-04T23:58:43;4.60;99.90
